sensor_id;sensor_type;location;lat;lon;timestamp;pressure;altitude;pressure_sealevel;temperature;humidity
30636;BME280;17400;52.392;9.750;2023-04-27T00:01:52;101321.09;;;8.38;82.62
30636;BME280;17400;52.392;9.750;2023-04-27T00:04:19;101317.75;;;8.36;83.30
30636;BME280;17400;52.392;9.750;2023-04-27T00:06:48;101315.56;;;8.48;82.48
30636;BME280;17400;52.392;9.750;2023-04-27T00:09:16;101318.56;;;8.45;82.06
30636;BME280;17400;52.392;9.750;2023-04-27T00:11:45;101318.06;;;8.41;81.94
30636;BME280;17400;52.392;9.750;2023-04-27T00:14:12;101313.91;;;8.47;80.91
30636;BME280;17400;52.392;9.750;2023-04-27T00:16:40;101306.97;;;8.53;80.53
30636;BME280;17400;52.392;9.750;2023-04-27T00:19:11;101314.06;;;8.54;80.25
30636;BME280;17400;52.392;9.750;2023-04-27T00:21:41;101311.19;;;8.55;80.28
30636;BME280;17400;52.392;9.750;2023-04-27T00:24:08;101314.25;;;8.52;79.55
30636;BME280;17400;52.392;9.750;2023-04-27T00:26:36;101312.31;;;8.28;80.60
30636;BME280;17400;52.392;9.750;2023-04-27T00:29:05;101306.44;;;8.32;81.25
30636;BME280;17400;52.392;9.750;2023-04-27T00:31:33;101305.25;;;8.35;81.12
30636;BME280;17400;52.392;9.750;2023-04-27T00:34:01;101306.94;;;8.28;81.09
30636;BME280;17400;52.392;9.750;2023-04-27T00:36:28;101302.22;;;8.30;81.67
30636;BME280;17400;52.392;9.750;2023-04-27T00:38:56;101308.13;;;8.33;81.86
30636;BME280;17400;52.392;9.750;2023-04-27T00:41:24;101309.81;;;8.34;81.56
30636;BME280;17400;52.392;9.750;2023-04-27T00:43:51;101307.78;;;8.37;81.40
30636;BME280;17400;52.392;9.750;2023-04-27T00:46:20;101309.31;;;8.31;82.31
30636;BME280;17400;52.392;9.750;2023-04-27T00:48:48;101312.50;;;8.34;81.44
30636;BME280;17400;52.392;9.750;2023-04-27T00:51:17;101311.50;;;8.36;81.83
30636;BME280;17400;52.392;9.750;2023-04-27T00:53:44;101311.50;;;8.36;81.93
30636;BME280;17400;52.392;9.750;2023-04-27T00:56:12;101306.28;;;8.34;82.33
30636;BME280;17400;52.392;9.750;2023-04-27T00:58:40;101309.97;;;8.33;82.87
30636;BME280;17400;52.392;9.750;2023-04-27T01:01:08;101312.66;;;8.33;83.32
30636;BME280;17400;52.392;9.750;2023-04-27T01:03:37;101317.06;;;8.34;82.72
30636;BME280;17400;52.392;9.750;2023-04-27T01:06:06;101318.72;;;8.27;83.20
30636;BME280;17400;52.392;9.750;2023-04-27T01:08:33;101323.81;;;8.22;83.22
30636;BME280;17400;52.392;9.750;2023-04-27T01:11:01;101321.41;;;8.18;83.18
30636;BME280;17400;52.392;9.750;2023-04-27T01:13:29;101312.16;;;8.13;82.94
30636;BME280;17400;52.392;9.750;2023-04-27T01:15:57;101320.06;;;8.14;83.01
30636;BME280;17400;52.392;9.750;2023-04-27T01:18:24;101322.25;;;8.11;83.30
30636;BME280;17400;52.392;9.750;2023-04-27T01:20:55;101319.38;;;8.04;83.85
30636;BME280;17400;52.392;9.750;2023-04-27T01:23:24;101327.31;;;8.06;83.74
30636;BME280;17400;52.392;9.750;2023-04-27T01:25:52;101328.16;;;8.06;83.78
30636;BME280;17400;52.392;9.750;2023-04-27T01:28:19;101335.91;;;8.09;83.78
30636;BME280;17400;52.392;9.750;2023-04-27T01:30:47;101332.50;;;7.99;84.54
30636;BME280;17400;52.392;9.750;2023-04-27T01:33:15;101333.03;;;8.03;84.07
30636;BME280;17400;52.392;9.750;2023-04-27T01:35:43;101340.09;;;8.04;84.42
30636;BME280;17400;52.392;9.750;2023-04-27T01:38:11;101349.03;;;8.04;84.84
30636;BME280;17400;52.392;9.750;2023-04-27T01:40:40;101348.19;;;7.95;85.38
30636;BME280;17400;52.392;9.750;2023-04-27T01:43:08;101346.66;;;7.93;85.46
30636;BME280;17400;52.392;9.750;2023-04-27T01:45:36;101353.69;;;7.86;86.14
30636;BME280;17400;52.392;9.750;2023-04-27T01:48:04;101366.81;;;7.80;86.81
30636;BME280;17400;52.392;9.750;2023-04-27T01:50:32;101370.19;;;7.82;86.32
30636;BME280;17400;52.392;9.750;2023-04-27T01:52:59;101364.53;;;7.94;85.67
30636;BME280;17400;52.392;9.750;2023-04-27T01:55:27;101375.44;;;7.84;85.67
30636;BME280;17400;52.392;9.750;2023-04-27T01:57:56;101382.69;;;7.83;85.70
30636;BME280;17400;52.392;9.750;2023-04-27T02:00:24;101387.41;;;7.90;85.09
30636;BME280;17400;52.392;9.750;2023-04-27T02:02:51;101385.75;;;7.89;85.03
30636;BME280;17400;52.392;9.750;2023-04-27T02:05:23;101400.22;;;7.88;84.46
30636;BME280;17400;52.392;9.750;2023-04-27T02:07:50;101396.31;;;7.82;84.23
30636;BME280;17400;52.392;9.750;2023-04-27T02:10:18;101399.31;;;7.79;84.95
30636;BME280;17400;52.392;9.750;2023-04-27T02:12:47;101403.53;;;7.73;84.71
30636;BME280;17400;52.392;9.750;2023-04-27T02:15:16;101404.06;;;7.77;84.66
30636;BME280;17400;52.392;9.750;2023-04-27T02:17:44;101407.25;;;7.80;84.34
30636;BME280;17400;52.392;9.750;2023-04-27T02:20:12;101408.94;;;7.81;83.56
30636;BME280;17400;52.392;9.750;2023-04-27T02:22:40;101406.91;;;7.75;83.01
30636;BME280;17400;52.392;9.750;2023-04-27T02:25:10;101409.53;;;7.67;83.51
30636;BME280;17400;52.392;9.750;2023-04-27T02:27:38;101410.50;;;7.58;85.13
30636;BME280;17400;52.392;9.750;2023-04-27T02:30:08;101410.84;;;7.55;84.81
30636;BME280;17400;52.392;9.750;2023-04-27T02:32:38;101412.22;;;7.59;85.47
30636;BME280;17400;52.392;9.750;2023-04-27T02:35:07;101417.59;;;7.59;84.94
30636;BME280;17400;52.392;9.750;2023-04-27T02:37:35;101412.22;;;7.59;84.79
30636;BME280;17400;52.392;9.750;2023-04-27T02:40:03;101407.50;;;7.61;85.27
30636;BME280;17400;52.392;9.750;2023-04-27T02:42:32;101405.66;;;7.61;84.90
30636;BME280;17400;52.392;9.750;2023-04-27T02:45:00;101402.44;;;7.58;85.04
30636;BME280;17400;52.392;9.750;2023-04-27T02:47:28;101405.78;;;7.52;86.06
30636;BME280;17400;52.392;9.750;2023-04-27T02:49:57;101408.16;;;7.55;86.41
30636;BME280;17400;52.392;9.750;2023-04-27T02:52:25;101403.09;;;7.52;86.47
30636;BME280;17400;52.392;9.750;2023-04-27T02:54:53;101405.72;;;7.43;86.49
30636;BME280;17400;52.392;9.750;2023-04-27T02:57:20;101407.00;;;7.31;87.88
30636;BME280;17400;52.392;9.750;2023-04-27T02:59:48;101405.38;;;7.12;89.26
30636;BME280;17400;52.392;9.750;2023-04-27T03:02:16;101407.69;;;7.07;89.45
30636;BME280;17400;52.392;9.750;2023-04-27T03:04:44;101399.13;;;7.11;89.74
30636;BME280;17400;52.392;9.750;2023-04-27T03:07:13;101396.97;;;7.15;89.66
30636;BME280;17400;52.392;9.750;2023-04-27T03:09:41;101400.97;;;7.11;89.93
30636;BME280;17400;52.392;9.750;2023-04-27T03:12:08;101397.97;;;7.14;89.90
30636;BME280;17400;52.392;9.750;2023-04-27T03:14:36;101405.66;;;7.09;90.22
30636;BME280;17400;52.392;9.750;2023-04-27T03:17:04;101407.13;;;7.03;91.12
30636;BME280;17400;52.392;9.750;2023-04-27T03:19:31;101398.44;;;7.09;90.64
30636;BME280;17400;52.392;9.750;2023-04-27T03:21:59;101403.66;;;7.11;91.89
30636;BME280;17400;52.392;9.750;2023-04-27T03:24:28;101401.81;;;7.11;91.79
30636;BME280;17400;52.392;9.750;2023-04-27T03:26:56;101406.19;;;7.12;91.69
30636;BME280;17400;52.392;9.750;2023-04-27T03:29:24;101404.66;;;7.10;91.93
30636;BME280;17400;52.392;9.750;2023-04-27T03:31:51;101405.75;;;6.99;92.44
30636;BME280;17400;52.392;9.750;2023-04-27T03:34:19;101402.41;;;6.79;94.84
30636;BME280;17400;52.392;9.750;2023-04-27T03:36:47;101408.78;;;6.78;95.28
30636;BME280;17400;52.392;9.750;2023-04-27T03:39:15;101416.34;;;6.56;96.51
30636;BME280;17400;52.392;9.750;2023-04-27T03:41:44;101418.88;;;6.58;97.70
30636;BME280;17400;52.392;9.750;2023-04-27T03:44:11;101424.00;;;6.69;97.80
30636;BME280;17400;52.392;9.750;2023-04-27T03:46:39;101419.72;;;6.76;95.94
30636;BME280;17400;52.392;9.750;2023-04-27T03:49:07;101418.19;;;6.74;96.47
30636;BME280;17400;52.392;9.750;2023-04-27T03:51:34;101413.56;;;6.66;97.32
30636;BME280;17400;52.392;9.750;2023-04-27T03:54:03;101424.72;;;6.71;96.73
30636;BME280;17400;52.392;9.750;2023-04-27T03:56:31;101428.59;;;6.59;97.60
30636;BME280;17400;52.392;9.750;2023-04-27T03:59:00;101427.22;;;6.55;97.40
30636;BME280;17400;52.392;9.750;2023-04-27T04:01:27;101434.31;;;6.56;97.11
30636;BME280;17400;52.392;9.750;2023-04-27T04:03:56;101436.84;;;6.39;98.43
30636;BME280;17400;52.392;9.750;2023-04-27T04:06:24;101431.16;;;6.42;98.55
30636;BME280;17400;52.392;9.750;2023-04-27T04:08:53;101428.69;;;6.49;98.63
30636;BME280;17400;52.392;9.750;2023-04-27T04:11:21;101430.94;;;6.54;98.01
30636;BME280;17400;52.392;9.750;2023-04-27T04:13:48;101427.63;;;6.60;96.89
30636;BME280;17400;52.392;9.750;2023-04-27T04:16:17;101434.25;;;6.65;96.57
30636;BME280;17400;52.392;9.750;2023-04-27T04:18:45;101433.69;;;6.62;96.55
30636;BME280;17400;52.392;9.750;2023-04-27T04:21:13;101438.00;;;6.73;96.00
30636;BME280;17400;52.392;9.750;2023-04-27T04:23:41;101437.06;;;6.82;96.37
30636;BME280;17400;52.392;9.750;2023-04-27T04:26:08;101443.16;;;6.84;95.22
30636;BME280;17400;52.392;9.750;2023-04-27T04:28:36;101432.09;;;6.87;95.37
30636;BME280;17400;52.392;9.750;2023-04-27T04:31:04;101447.25;;;6.88;94.51
30636;BME280;17400;52.392;9.750;2023-04-27T04:33:36;101446.75;;;6.93;94.43
30636;BME280;17400;52.392;9.750;2023-04-27T04:36:04;101446.81;;;7.01;92.79
30636;BME280;17400;52.392;9.750;2023-04-27T04:38:32;101438.63;;;7.03;93.11
30636;BME280;17400;52.392;9.750;2023-04-27T04:40:59;101431.31;;;6.95;93.22
30636;BME280;17400;52.392;9.750;2023-04-27T04:43:27;101436.75;;;6.85;93.92
30636;BME280;17400;52.392;9.750;2023-04-27T04:45:55;101440.31;;;6.86;94.05
30636;BME280;17400;52.392;9.750;2023-04-27T04:48:23;101437.31;;;6.89;93.46
30636;BME280;17400;52.392;9.750;2023-04-27T04:50:52;101447.25;;;6.88;93.85
30636;BME280;17400;52.392;9.750;2023-04-27T04:53:20;101447.53;;;6.85;93.13
30636;BME280;17400;52.392;9.750;2023-04-27T04:55:47;101446.47;;;6.78;93.14
30636;BME280;17400;52.392;9.750;2023-04-27T04:58:15;101445.84;;;6.66;93.47
30636;BME280;17400;52.392;9.750;2023-04-27T05:00:42;101443.09;;;6.58;94.91
30636;BME280;17400;52.392;9.750;2023-04-27T05:03:10;101445.53;;;6.69;94.82
30636;BME280;17400;52.392;9.750;2023-04-27T05:05:38;101453.38;;;6.80;94.31
30636;BME280;17400;52.392;9.750;2023-04-27T05:08:07;101456.13;;;6.71;93.83
30636;BME280;17400;52.392;9.750;2023-04-27T05:10:35;101456.38;;;6.59;95.43
30636;BME280;17400;52.392;9.750;2023-04-27T05:13:03;101455.78;;;6.65;95.22
30636;BME280;17400;52.392;9.750;2023-04-27T05:15:32;101456.13;;;6.71;95.03
30636;BME280;17400;52.392;9.750;2023-04-27T05:18:00;101450.31;;;6.75;94.69
30636;BME280;17400;52.392;9.750;2023-04-27T05:20:28;101460.91;;;6.77;94.60
30636;BME280;17400;52.392;9.750;2023-04-27T05:22:55;101459.22;;;6.76;94.29
30636;BME280;17400;52.392;9.750;2023-04-27T05:25:24;101464.38;;;6.69;93.38
30636;BME280;17400;52.392;9.750;2023-04-27T05:27:52;101470.44;;;6.53;95.13
30636;BME280;17400;52.392;9.750;2023-04-27T05:30:21;101470.91;;;6.48;95.70
30636;BME280;17400;52.392;9.750;2023-04-27T05:32:49;101463.06;;;6.55;95.72
30636;BME280;17400;52.392;9.750;2023-04-27T05:35:17;101466.91;;;6.53;95.94
30636;BME280;17400;52.392;9.750;2023-04-27T05:37:45;101472.97;;;6.55;95.01
30636;BME280;17400;52.392;9.750;2023-04-27T05:40:14;101483.28;;;6.59;95.84
30636;BME280;17400;52.392;9.750;2023-04-27T05:42:44;101483.69;;;6.64;95.40
30636;BME280;17400;52.392;9.750;2023-04-27T05:45:12;101484.19;;;6.68;94.89
30636;BME280;17400;52.392;9.750;2023-04-27T05:47:41;101489.38;;;6.79;93.88
30636;BME280;17400;52.392;9.750;2023-04-27T05:50:09;101490.06;;;6.81;93.88
30636;BME280;17400;52.392;9.750;2023-04-27T05:52:37;101488.75;;;6.86;92.91
30636;BME280;17400;52.392;9.750;2023-04-27T05:55:06;101493.00;;;6.88;93.34
30636;BME280;17400;52.392;9.750;2023-04-27T05:57:34;101494.44;;;6.82;93.49
30636;BME280;17400;52.392;9.750;2023-04-27T06:00:04;101496.19;;;6.92;93.64
30636;BME280;17400;52.392;9.750;2023-04-27T06:02:36;101499.28;;;7.15;91.99
30636;BME280;17400;52.392;9.750;2023-04-27T06:05:04;101503.91;;;7.23;90.50
30636;BME280;17400;52.392;9.750;2023-04-27T06:07:32;101501.03;;;7.06;91.67
30636;BME280;17400;52.392;9.750;2023-04-27T06:10:00;101497.09;;;7.37;90.29
30636;BME280;17400;52.392;9.750;2023-04-27T06:12:28;101506.50;;;7.59;88.30
30636;BME280;17400;52.392;9.750;2023-04-27T06:14:56;101501.28;;;7.57;87.65
30636;BME280;17400;52.392;9.750;2023-04-27T06:17:24;101499.59;;;7.56;87.57
30636;BME280;17400;52.392;9.750;2023-04-27T06:19:52;101507.88;;;7.63;86.80
30636;BME280;17400;52.392;9.750;2023-04-27T06:22:20;101507.63;;;7.74;86.75
30636;BME280;17400;52.392;9.750;2023-04-27T06:24:47;101517.94;;;7.79;86.32
30636;BME280;17400;52.392;9.750;2023-04-27T06:27:15;101516.19;;;7.70;85.01
30636;BME280;17400;52.392;9.750;2023-04-27T06:29:43;101518.03;;;7.69;85.71
30636;BME280;17400;52.392;9.750;2023-04-27T06:32:10;101513.59;;;7.60;86.66
30636;BME280;17400;52.392;9.750;2023-04-27T06:34:39;101514.06;;;7.81;84.86
30636;BME280;17400;52.392;9.750;2023-04-27T06:37:07;101510.75;;;7.88;84.53
30636;BME280;17400;52.392;9.750;2023-04-27T06:39:34;101512.81;;;7.94;83.52
30636;BME280;17400;52.392;9.750;2023-04-27T06:42:03;101514.38;;;8.05;83.12
30636;BME280;17400;52.392;9.750;2023-04-27T06:44:30;101523.81;;;8.00;83.38
30636;BME280;17400;52.392;9.750;2023-04-27T06:46:58;101519.81;;;8.13;81.81
30636;BME280;17400;52.392;9.750;2023-04-27T06:49:26;101524.06;;;8.24;80.38
30636;BME280;17400;52.392;9.750;2023-04-27T06:51:55;101525.44;;;8.28;79.62
30636;BME280;17400;52.392;9.750;2023-04-27T06:54:24;101516.66;;;8.26;78.11
30636;BME280;17400;52.392;9.750;2023-04-27T06:56:52;101533.16;;;8.23;77.80
30636;BME280;17400;52.392;9.750;2023-04-27T06:59:20;101523.91;;;8.25;78.41
30636;BME280;17400;52.392;9.750;2023-04-27T07:01:47;101530.78;;;8.20;78.24
30636;BME280;17400;52.392;9.750;2023-04-27T07:04:15;101527.81;;;8.31;77.02
30636;BME280;17400;52.392;9.750;2023-04-27T07:06:43;101529.22;;;8.43;76.42
30636;BME280;17400;52.392;9.750;2023-04-27T07:09:12;101517.22;;;8.38;76.26
30636;BME280;17400;52.392;9.750;2023-04-27T07:11:53;101521.50;;;8.48;76.96
30636;BME280;17400;52.392;9.750;2023-04-27T07:14:21;101522.69;;;8.54;76.21
30636;BME280;17400;52.392;9.750;2023-04-27T07:16:49;101525.28;;;8.64;74.66
30636;BME280;17400;52.392;9.750;2023-04-27T07:19:16;101524.97;;;8.41;75.92
30636;BME280;17400;52.392;9.750;2023-04-27T07:21:44;101520.75;;;8.38;73.36
30636;BME280;17400;52.392;9.750;2023-04-27T07:24:13;101523.66;;;8.45;71.06
30636;BME280;17400;52.392;9.750;2023-04-27T07:26:40;101526.28;;;8.63;70.61
30636;BME280;17400;52.392;9.750;2023-04-27T07:29:08;101522.44;;;8.82;71.28
30636;BME280;17400;52.392;9.750;2023-04-27T07:31:52;101515.72;;;8.94;70.75
30636;BME280;17400;52.392;9.750;2023-04-27T07:34:21;101516.72;;;9.02;65.93
30636;BME280;17400;52.392;9.750;2023-04-27T07:36:50;101523.13;;;9.09;61.67
30636;BME280;17400;52.392;9.750;2023-04-27T07:39:20;101521.97;;;9.11;60.90
30636;BME280;17400;52.392;9.750;2023-04-27T07:41:49;101533.28;;;9.07;62.08
30636;BME280;17400;52.392;9.750;2023-04-27T07:44:17;101534.97;;;9.16;62.19
30636;BME280;17400;52.392;9.750;2023-04-27T07:46:46;101522.81;;;9.28;57.72
30636;BME280;17400;52.392;9.750;2023-04-27T07:49:14;101536.16;;;9.22;56.04
30636;BME280;17400;52.392;9.750;2023-04-27T07:51:42;101528.38;;;9.35;57.35
30636;BME280;17400;52.392;9.750;2023-04-27T07:54:09;101528.56;;;9.42;57.00
30636;BME280;17400;52.392;9.750;2023-04-27T07:56:40;101520.97;;;9.37;56.69
30636;BME280;17400;52.392;9.750;2023-04-27T07:59:08;101516.22;;;9.56;57.20
30636;BME280;17400;52.392;9.750;2023-04-27T08:01:36;101519.06;;;9.71;55.64
30636;BME280;17400;52.392;9.750;2023-04-27T08:04:04;101515.34;;;9.72;55.38
30636;BME280;17400;52.392;9.750;2023-04-27T08:06:32;101515.22;;;9.48;56.05
30636;BME280;17400;52.392;9.750;2023-04-27T08:09:01;101508.81;;;9.16;56.18
30636;BME280;17400;52.392;9.750;2023-04-27T08:11:30;101509.97;;;8.97;57.02
30636;BME280;17400;52.392;9.750;2023-04-27T08:13:59;101511.78;;;8.72;57.04
30636;BME280;17400;52.392;9.750;2023-04-27T08:16:28;101522.78;;;8.95;58.68
30636;BME280;17400;52.392;9.750;2023-04-27T08:18:56;101515.06;;;9.25;54.83
30636;BME280;17400;52.392;9.750;2023-04-27T08:21:26;101506.09;;;9.49;53.29
30636;BME280;17400;52.392;9.750;2023-04-27T08:23:55;101511.66;;;9.64;52.84
30636;BME280;17400;52.392;9.750;2023-04-27T08:26:23;101509.94;;;9.80;51.81
30636;BME280;17400;52.392;9.750;2023-04-27T08:28:51;101505.03;;;9.83;49.55
30636;BME280;17400;52.392;9.750;2023-04-27T08:31:21;101505.16;;;9.98;50.38
30636;BME280;17400;52.392;9.750;2023-04-27T08:33:48;101501.31;;;9.84;50.35
30636;BME280;17400;52.392;9.750;2023-04-27T08:36:16;101500.59;;;9.91;51.71
30636;BME280;17400;52.392;9.750;2023-04-27T08:38:44;101501.97;;;9.87;52.08
30636;BME280;17400;52.392;9.750;2023-04-27T08:41:17;101497.97;;;9.66;51.95
30636;BME280;17400;52.392;9.750;2023-04-27T08:43:48;101506.09;;;9.49;52.66
30636;BME280;17400;52.392;9.750;2023-04-27T08:46:21;101501.38;;;9.43;53.75
30636;BME280;17400;52.392;9.750;2023-04-27T08:48:51;101505.41;;;9.39;54.67
30636;BME280;17400;52.392;9.750;2023-04-27T08:51:19;101507.44;;;9.54;54.51
30636;BME280;17400;52.392;9.750;2023-04-27T08:53:49;101499.97;;;9.72;53.70
30636;BME280;17400;52.392;9.750;2023-04-27T08:56:17;101491.84;;;9.89;53.56
30636;BME280;17400;52.392;9.750;2023-04-27T08:58:45;101495.66;;;10.03;53.20
30636;BME280;17400;52.392;9.750;2023-04-27T09:01:13;101486.63;;;10.18;51.94
30636;BME280;17400;52.392;9.750;2023-04-27T09:03:43;101488.97;;;10.30;50.33
30636;BME280;17400;52.392;9.750;2023-04-27T09:06:14;101490.97;;;10.44;50.71
30636;BME280;17400;52.392;9.750;2023-04-27T09:08:43;101493.00;;;10.42;49.04
30636;BME280;17400;52.392;9.750;2023-04-27T09:11:12;101492.53;;;10.39;48.43
30636;BME280;17400;52.392;9.750;2023-04-27T09:13:43;101483.84;;;10.43;48.75
30636;BME280;17400;52.392;9.750;2023-04-27T09:16:12;101483.91;;;10.35;48.34
30636;BME280;17400;52.392;9.750;2023-04-27T09:18:43;101489.28;;;10.43;49.04
30636;BME280;17400;52.392;9.750;2023-04-27T09:21:21;101489.69;;;10.15;48.20
30636;BME280;17400;52.392;9.750;2023-04-27T09:23:49;101489.59;;;10.00;49.39
30636;BME280;17400;52.392;9.750;2023-04-27T09:26:20;101487.41;;;9.96;50.29
30636;BME280;17400;52.392;9.750;2023-04-27T09:28:49;101484.75;;;9.79;49.50
30636;BME280;17400;52.392;9.750;2023-04-27T09:31:18;101488.81;;;9.67;50.09
30636;BME280;17400;52.392;9.750;2023-04-27T09:33:53;101494.94;;;9.61;51.03
30636;BME280;17400;52.392;9.750;2023-04-27T09:36:22;101490.22;;;9.55;50.54
30636;BME280;17400;52.392;9.750;2023-04-27T09:38:50;101490.88;;;9.57;51.60
30636;BME280;17400;52.392;9.750;2023-04-27T09:41:18;101482.06;;;9.79;48.60
30636;BME280;17400;52.392;9.750;2023-04-27T09:43:47;101480.47;;;9.93;47.67
30636;BME280;17400;52.392;9.750;2023-04-27T09:46:15;101478.19;;;10.22;47.48
30636;BME280;17400;52.392;9.750;2023-04-27T09:48:42;101480.13;;;10.44;46.42
30636;BME280;17400;52.392;9.750;2023-04-27T09:51:13;101466.69;;;10.59;45.96
30636;BME280;17400;52.392;9.750;2023-04-27T09:53:45;101468.91;;;10.56;45.03
30636;BME280;17400;52.392;9.750;2023-04-27T09:56:24;101469.66;;;10.41;46.20
30636;BME280;17400;52.392;9.750;2023-04-27T09:59:09;101469.13;;;10.46;46.53
30636;BME280;17400;52.392;9.750;2023-04-27T10:01:42;101465.16;;;10.57;46.65
30636;BME280;17400;52.392;9.750;2023-04-27T10:04:32;101463.88;;;10.44;47.29
30636;BME280;17400;52.392;9.750;2023-04-27T10:07:06;101472.63;;;10.55;46.80
30636;BME280;17400;52.392;9.750;2023-04-27T10:09:36;101471.91;;;10.61;47.17
30636;BME280;17400;52.392;9.750;2023-04-27T10:12:15;101470.84;;;10.70;46.11
30636;BME280;17400;52.392;9.750;2023-04-27T10:14:50;101479.00;;;10.62;44.29
30636;BME280;17400;52.392;9.750;2023-04-27T10:17:23;101475.81;;;10.58;43.36
30636;BME280;17400;52.392;9.750;2023-04-27T10:19:52;101471.31;;;10.50;42.97
30636;BME280;17400;52.392;9.750;2023-04-27T10:22:36;101470.84;;;10.70;42.74
30636;BME280;17400;52.392;9.750;2023-04-27T10:25:12;101472.28;;;10.58;42.98
30636;BME280;17400;52.392;9.750;2023-04-27T10:27:41;101465.59;;;10.69;43.10
30636;BME280;17400;52.392;9.750;2023-04-27T10:30:10;101465.41;;;10.70;42.32
30636;BME280;17400;52.392;9.750;2023-04-27T10:32:49;101460.19;;;10.69;42.30
30636;BME280;17400;52.392;9.750;2023-04-27T10:35:19;101462.06;;;10.91;43.11
30636;BME280;17400;52.392;9.750;2023-04-27T10:37:49;101470.56;;;11.11;42.29
30636;BME280;17400;52.392;9.750;2023-04-27T10:40:18;101463.63;;;11.09;43.15
30636;BME280;17400;52.392;9.750;2023-04-27T10:42:46;101463.84;;;11.22;42.05
30636;BME280;17400;52.392;9.750;2023-04-27T10:45:25;101465.06;;;10.96;42.15
30636;BME280;17400;52.392;9.750;2023-04-27T10:47:59;101452.84;;;11.00;43.42
30636;BME280;17400;52.392;9.750;2023-04-27T10:50:27;101467.34;;;11.08;43.00
30636;BME280;17400;52.392;9.750;2023-04-27T10:53:00;101467.53;;;11.06;42.21
30636;BME280;17400;52.392;9.750;2023-04-27T10:55:29;101456.09;;;10.96;41.81
30636;BME280;17400;52.392;9.750;2023-04-27T10:57:57;101465.63;;;10.92;41.57
30636;BME280;17400;52.392;9.750;2023-04-27T11:00:27;101460.91;;;10.86;41.47
30636;BME280;17400;52.392;9.750;2023-04-27T11:03:10;101450.97;;;10.78;42.22
30636;BME280;17400;52.392;9.750;2023-04-27T11:05:38;101454.19;;;10.81;41.62
30636;BME280;17400;52.392;9.750;2023-04-27T11:08:10;101448.50;;;10.91;41.49
30636;BME280;17400;52.392;9.750;2023-04-27T11:10:38;101463.31;;;11.04;41.34
30636;BME280;17400;52.392;9.750;2023-04-27T11:13:08;101456.81;;;11.13;41.05
30636;BME280;17400;52.392;9.750;2023-04-27T11:15:44;101443.38;;;11.20;40.57
30636;BME280;17400;52.392;9.750;2023-04-27T11:18:12;101445.63;;;11.31;40.35
30636;BME280;17400;52.392;9.750;2023-04-27T11:20:41;101455.47;;;11.47;40.94
30636;BME280;17400;52.392;9.750;2023-04-27T11:23:21;101453.25;;;11.65;39.80
30636;BME280;17400;52.392;9.750;2023-04-27T11:25:49;101454.28;;;11.79;40.28
30636;BME280;17400;52.392;9.750;2023-04-27T11:28:18;101455.50;;;11.77;39.53
30636;BME280;17400;52.392;9.750;2023-04-27T11:30:46;101451.47;;;11.73;39.60
30636;BME280;17400;52.392;9.750;2023-04-27T11:33:14;101452.97;;;11.60;40.04
30636;BME280;17400;52.392;9.750;2023-04-27T11:35:42;101453.34;;;11.57;39.71
30636;BME280;17400;52.392;9.750;2023-04-27T11:38:15;101460.81;;;11.55;40.85
30636;BME280;17400;52.392;9.750;2023-04-27T11:40:45;101452.75;;;11.47;41.11
30636;BME280;17400;52.392;9.750;2023-04-27T11:43:13;101458.75;;;11.57;41.54
30636;BME280;17400;52.392;9.750;2023-04-27T11:45:41;101449.88;;;11.63;40.34
30636;BME280;17400;52.392;9.750;2023-04-27T11:48:12;101444.84;;;11.75;40.78
30636;BME280;17400;52.392;9.750;2023-04-27T11:50:40;101446.91;;;11.88;40.57
30636;BME280;17400;52.392;9.750;2023-04-27T11:53:08;101442.97;;;11.91;40.55
30636;BME280;17400;52.392;9.750;2023-04-27T11:55:37;101442.59;;;12.09;40.35
30636;BME280;17400;52.392;9.750;2023-04-27T11:58:12;101436.63;;;12.13;39.28
30636;BME280;17400;52.392;9.750;2023-04-27T12:00:40;101433.53;;;12.02;39.64
30636;BME280;17400;52.392;9.750;2023-04-27T12:03:08;101442.88;;;11.84;40.09
30636;BME280;17400;52.392;9.750;2023-04-27T12:05:46;101440.91;;;11.78;39.72
30636;BME280;17400;52.392;9.750;2023-04-27T12:08:14;101439.88;;;11.64;40.25
30636;BME280;17400;52.392;9.750;2023-04-27T12:10:44;101440.97;;;11.55;40.69
30636;BME280;17400;52.392;9.750;2023-04-27T12:13:14;101435.56;;;11.55;40.39
30636;BME280;17400;52.392;9.750;2023-04-27T12:15:42;101436.13;;;11.50;41.16
30636;BME280;17400;52.392;9.750;2023-04-27T12:18:09;101434.91;;;11.53;41.12
30636;BME280;17400;52.392;9.750;2023-04-27T12:20:37;101432.69;;;11.71;40.70
30636;BME280;17400;52.392;9.750;2023-04-27T12:23:05;101429.78;;;11.73;40.20
30636;BME280;17400;52.392;9.750;2023-04-27T12:25:33;101430.31;;;11.68;39.92
30636;BME280;17400;52.392;9.750;2023-04-27T12:28:03;101425.38;;;11.87;39.59
30636;BME280;17400;52.392;9.750;2023-04-27T12:30:31;101424.75;;;12.14;38.93
30636;BME280;17400;52.392;9.750;2023-04-27T12:32:59;101427.47;;;12.36;39.40
30636;BME280;17400;52.392;9.750;2023-04-27T12:35:27;101420.00;;;12.60;37.92
30636;BME280;17400;52.392;9.750;2023-04-27T12:37:57;101414.88;;;12.93;38.77
30636;BME280;17400;52.392;9.750;2023-04-27T12:40:25;101413.69;;;13.24;37.46
30636;BME280;17400;52.392;9.750;2023-04-27T12:42:52;101415.28;;;13.40;36.50
30636;BME280;17400;52.392;9.750;2023-04-27T12:45:21;101407.47;;;13.59;36.28
30636;BME280;17400;52.392;9.750;2023-04-27T12:47:49;101409.16;;;13.66;35.09
30636;BME280;17400;52.392;9.750;2023-04-27T12:50:29;101403.91;;;13.65;34.73
30636;BME280;17400;52.392;9.750;2023-04-27T12:52:57;101398.34;;;13.73;34.90
30636;BME280;17400;52.392;9.750;2023-04-27T12:55:25;101397.56;;;13.93;34.62
30636;BME280;17400;52.392;9.750;2023-04-27T12:57:56;101397.69;;;14.20;34.22
30636;BME280;17400;52.392;9.750;2023-04-27T13:00:25;101396.47;;;14.29;33.95
30636;BME280;17400;52.392;9.750;2023-04-27T13:02:54;101388.78;;;14.53;33.83
30636;BME280;17400;52.392;9.750;2023-04-27T13:05:23;101394.41;;;14.51;33.10
30636;BME280;17400;52.392;9.750;2023-04-27T13:07:52;101394.78;;;14.28;34.04